Flight Track Log - Related Links

Times and Time Zones

All times are in EDT time to prevent confusion due to time zone crossing. See the SKW4564 flight status page for this flight to view local times or setup timezone preferences in your user account.


Time Position Orientation Groundspeed Altitude Reporting Facility
EDT Latitude Longitude Course Direction KTS MPH feet Rate Location/Type
Thu 05:40:12 PM 47.4306 -122.3097 161° South 162 186 1,200  Level Seattle Center
Thu 05:41:05 PM 47.3800 -122.3175 186° South 202 232 2,900 2,316 Climbing Seattle Center
Thu 05:42:06 PM 47.3025 -122.3133 178° South 277 319 5,600 3,148 Climbing Seattle Center
Thu 05:43:00 PM 47.0484 -122.1684 163° South  Level Estimated
Thu 05:43:07 PM 47.2272 -122.3061 176° South 276 318 9,300  Level Seattle Center
Thu 05:44:00 PM 46.9464 -122.1443 171° South  Level FlightAware Approximate
Thu 05:44:08 PM 47.1536 -122.2331 146° Southeast 302 348 11,300  Level Seattle Center
Thu 05:45:00 PM 46.8460 -122.1088 161° South  Level Estimated
Thu 05:45:09 PM 47.0594 -122.2164 173° South 356 410 13,500  Level Seattle Center
Thu 05:46:09 PM 46.9661 -122.2783 204° Southwest 368 423 16,100 2,231 Climbing Seattle Center
Thu 05:47:10 PM 46.8828 -122.3608 214° Southwest 391 450 18,000 2,311 Climbing Seattle Center
Thu 05:48:11 PM 46.7828 -122.4108 199° South 386 444 20,800 2,016 Climbing Seattle Center
Thu 05:49:12 PM 46.6792 -122.4000 176° South 397 457 22,100 1,230 Climbing Seattle Center
Thu 05:50:13 PM 46.5725 -122.3686 169° South 400 460 23,300 1,574 Climbing Seattle Center
Thu 05:51:14 PM 46.4394 -122.3211 166° South 413 475 25,300 1,770 Climbing Seattle Center
Thu 05:52:15 PM 46.3286 -122.2886 169° South 411 473 26,900 1,525 Climbing Seattle Center
Thu 05:53:16 PM 46.2178 -122.2514 167° South 413 475 28,400 1,279 Climbing Seattle Center
Thu 05:54:17 PM 46.1022 -122.2144 168° South 419 482 29,500 1,033 Climbing Seattle Center
Thu 05:55:18 PM 45.9869 -122.1797 168° South 422 486 30,500 1,131 Climbing Seattle Center
Thu 05:56:19 PM 45.8703 -122.1417 167° South 428 493 31,800 836 Climbing Seattle Center
Thu 05:57:20 PM 45.7519 -122.1044 168° South 434 499 32,200 590 Climbing Seattle Center
Thu 05:58:21 PM 45.6297 -122.0653 167° South 447 514 33,000 934 Climbing Seattle Center
Thu 05:59:22 PM 45.5089 -122.0278 168° South 446 513 34,100 1,033 Climbing Seattle Center
Thu 06:00:23 PM 45.3906 -121.9911 168° South 439 505 35,100 984 Climbing Seattle Center
Thu 06:01:24 PM 45.2731 -121.9564 168° South 433 498 36,100 934 Climbing Seattle Center
Thu 06:02:25 PM 45.1525 -121.9189 168° South 431 496 37,000 443 Climbing Seattle Center
Thu 06:03:26 PM 45.0367 -121.8842 168° South 428 493 37,000 149 Level Seattle Center
Thu 06:04:26 PM 44.9158 -121.8464 168° South 442 509 37,300 645 Climbing Seattle Center
Thu 06:05:27 PM 44.7958 -121.8100 168° South 443 510 38,300 836 Climbing Seattle Center
Thu 06:06:28 PM 44.6561 -121.7686 168° South 432 497 39,000 344 Climbing Seattle Center
Thu 06:07:29 PM 44.5397 -121.7353 168° South 430 495 39,000  Level Seattle Center
Thu 06:08:30 PM 44.4217 -121.7006 168° South 433 498 39,000  Level Seattle Center
Thu 06:09:31 PM 44.3039 -121.6653 168° South 435 501 39,000  Level Seattle Center
Thu 06:10:32 PM 44.1836 -121.6294 168° South 440 506 39,000  Level Seattle Center
Thu 06:11:33 PM 44.0628 -121.5922 168° South 445 512 39,000  Level Seattle Center
Thu 06:12:34 PM 43.9433 -121.5581 168° South 441 507 39,000  Level Seattle Center
Thu 06:13:35 PM 43.8131 -121.5192 168° South 444 511 39,000  Level Seattle Center
Thu 06:14:36 PM 43.6917 -121.4850 168° South 445 512 39,000  Level Seattle Center
Thu 06:15:37 PM 43.5711 -121.4500 168° South 442 509 39,000  Level Seattle Center
Thu 06:16:38 PM 43.4508 -121.4147 168° South 442 509 39,000  Level Seattle Center
Thu 06:17:39 PM 43.3311 -121.3794 168° South 442 509 39,000  Level Seattle Center
Thu 06:18:39 PM 43.2117 -121.3475 169° South 439 505 39,000  Level Seattle Center
Thu 06:19:40 PM 43.0917 -121.3128 168° South 441 507 39,000  Level Seattle Center
Thu 06:20:41 PM 42.9703 -121.2792 169° South 443 510 39,000  Level Seattle Center
Thu 06:21:42 PM 42.8486 -121.2447 168° South 444 511 39,000  Level Seattle Center
Thu 06:22:43 PM 42.7283 -121.2111 168° South 442 509 39,000  Level Seattle Center
Thu 06:23:44 PM 42.6083 -121.1775 168° South 440 506 39,000  Level Seattle Center
Thu 06:24:45 PM 42.4642 -121.1361 168° South 436 502 39,000  Level Seattle Center
Thu 06:25:46 PM 42.3458 -121.1064 169° South 433 498 39,000  Level Seattle Center
Thu 06:26:47 PM 42.2283 -121.0742 169° South 429 494 39,000  Level Seattle Center
Thu 06:27:48 PM 42.1106 -121.0414 168° South 431 496 39,000  Level Seattle Center
Thu 06:28:49 PM 41.9931 -121.0097 169° South 429 494 39,000  Level Seattle Center
Thu 06:29:50 PM 41.8739 -120.9772 169° South 434 499 39,000  Level Seattle Center
Thu 06:30:51 PM 41.7589 -120.9458 168° South 424 488 39,000  Level Seattle Center
Thu 06:31:52 PM 41.6431 -120.9142 168° South 423 487 39,000  Level Seattle Center
Thu 06:32:53 PM 41.5272 -120.8831 169° South 424 488 39,000  Level Seattle Center
Thu 06:33:54 PM 41.4111 -120.8517 169° South 426 490 39,000  Level Seattle Center
Thu 06:34:55 PM 41.2942 -120.8186 168° South 430 495 39,000  Level Seattle Center
Thu 06:35:56 PM 41.1736 -120.7883 169° South 438 504 39,000  Level Seattle Center
Thu 06:36:57 PM 41.0531 -120.7572 169° South 440 506 39,000  Level Seattle Center
Thu 06:37:58 PM 40.9353 -120.7261 169° South 435 501 39,000  Level Seattle Center
Thu 06:38:59 PM 40.8169 -120.6981 170° South 434 499 39,000  Level Seattle Center
Thu 06:40:00 PM 40.6747 -120.6633 170° South 435 501 39,000  Level Seattle Center
Thu 06:40:46 PM 40.6050 -120.6464 170° South 435 501 39,000  Level Oakland Center
Thu 06:41:48 PM 40.4783 -120.6153 169° South 437 503 39,000  Level Oakland Center
Thu 06:42:49 PM 40.3586 -120.5872 170° South 435 501 39,000  Level Oakland Center
Thu 06:43:50 PM 40.2400 -120.5583 169° South 433 498 39,000  Level Oakland Center
Thu 06:44:52 PM 40.0964 -120.5247 170° South 435 501 39,000  Level Oakland Center
Thu 06:45:53 PM 39.9942 -120.5011 170° South 439 505 39,000  Level Oakland Center
Thu 06:46:55 PM 39.8500 -120.4683 170° South 439 505 39,000  Level Oakland Center
Thu 06:47:56 PM 39.7306 -120.4408 170° South 436 502 39,000  Level Oakland Center
Thu 06:48:58 PM 39.6111 -120.4136 170° South 435 501 39,000  Level Oakland Center
Thu 06:49:59 PM 39.4911 -120.3847 169° South 438 504 39,000  Level Oakland Center
Thu 06:51:01 PM 39.3714 -120.3575 170° South 437 503 39,000  Level Oakland Center
Thu 06:52:02 PM 39.2494 -120.3289 170° South 440 506 39,000  Level Oakland Center
Thu 06:53:04 PM 39.1272 -120.3006 170° South 443 510 39,000  Level Oakland Center
Thu 06:54:05 PM 39.0064 -120.2742 170° South 440 506 39,000  Level Oakland Center
Thu 06:55:07 PM 38.8850 -120.2467 170° South 440 506 39,000  Level Oakland Center
Thu 06:56:08 PM 38.7397 -120.2142 170° South 440 506 39,000  Level Oakland Center
Thu 06:57:10 PM 38.6175 -120.1869 170° South 442 509 39,000  Level Oakland Center
Thu 06:58:11 PM 38.4969 -120.1597 170° South 439 505 39,000  Level Oakland Center
Thu 06:59:13 PM 38.3758 -120.1333 170° South 439 505 39,000  Level Oakland Center
Thu 07:00:14 PM 38.2542 -120.1067 170° South 441 507 39,000  Level Oakland Center
Thu 07:01:16 PM 38.1333 -120.0789 170° South 441 507 39,000  Level Oakland Center
Thu 07:02:17 PM 38.0103 -120.0514 170° South 443 510 39,000  Level Oakland Center
Thu 07:03:19 PM 37.8894 -120.0253 170° South 443 510 39,000  Level Oakland Center
Thu 07:04:20 PM 37.7678 -119.9986 170° South 442 509 39,000  Level Oakland Center
Thu 07:05:22 PM 37.6456 -119.9711 170° South 444 511 39,000  Level Oakland Center
Thu 07:06:23 PM 37.4992 -119.9394 170° South 443 510 39,000  Level Oakland Center
Thu 07:07:25 PM 37.3775 -119.9136 170° South 441 507 39,000  Level Oakland Center
Thu 07:08:26 PM 37.2542 -119.8869 170° South 447 514 39,000  Level Oakland Center
Thu 07:09:28 PM 37.1317 -119.8592 170° South 446 513 39,000  Level Oakland Center
Thu 07:10:30 PM 37.0114 -119.8350 171° South 447 514 39,000  Level Oakland Center
Thu 07:11:31 PM 36.8886 -119.8078 170° South 447 514 39,000  Level Oakland Center
Thu 07:12:33 PM 36.7650 -119.7803 170° South 450 518 39,000  Level Oakland Center
Thu 07:13:34 PM 36.6417 -119.7550 171° South 450 518 39,000  Level Oakland Center
Thu 07:14:36 PM 36.4933 -119.7211 170° South 450 518 39,000  Level Oakland Center
Thu 07:15:37 PM 36.3692 -119.6956 171° South 451 519 39,000  Level Oakland Center
Thu 07:16:39 PM 36.2464 -119.6708 171° South 448 516 39,000  Level Oakland Center
Thu 07:17:40 PM 36.1233 -119.6444 170° South 447 514 39,000  Level Oakland Center
Thu 07:18:42 PM 36.0003 -119.6181 170° South 447 514 39,000  Level Oakland Center
Thu 07:19:43 PM 35.8767 -119.6178 180° South 441 507 39,000  Level Oakland Center
Thu 07:20:45 PM 35.7533 -119.6228 182° South 441 507 39,000 -526 Level Oakland Center
Thu 07:21:37 PM 35.6319 -119.6286 182° South 440 506 38,000 -1,474 Descending Los Angeles Center
Thu 07:22:39 PM 35.5169 -119.6319 181° South 424 488 36,200 -1,452 Descending Los Angeles Center
Thu 07:23:41 PM 35.4011 -119.6378 182° South 416 479 35,000 -1,500 Descending Los Angeles Center
Thu 07:24:43 PM 35.2764 -119.6281 176° South 445 512 33,100 -1,935 Descending Los Angeles Center
Thu 07:25:45 PM 35.1600 -119.5578 154° Southeast 463 533 31,000 -2,081 Descending Los Angeles Center
Thu 07:26:47 PM 35.0489 -119.4642 145° Southeast 479 551 28,800 -1,935 Descending Los Angeles Center
Thu 07:27:49 PM 34.9433 -119.3744 145° Southeast 468 539 27,000 -1,113 Descending Los Angeles Center
Thu 07:28:51 PM 34.8339 -119.2792 144° Southeast 406 467 26,500 -774 Descending Los Angeles Center
Thu 07:29:53 PM 34.7389 -119.1994 145° Southeast 413 475 25,400 -1,161 Descending Los Angeles Center
Thu 07:30:55 PM 34.6469 -119.1236 146° Southeast 404 465 24,100 -1,935 Descending Los Angeles Center
Thu 07:31:57 PM 34.5500 -119.0425 145° Southeast 395 455 21,400 -2,468 Descending Los Angeles Center
Thu 07:32:59 PM 34.4625 -118.9697 146° Southeast 380 437 19,000 -2,323 Descending Los Angeles Center
Thu 07:34:01 PM 34.3792 -118.9000 145° Southeast 363 418 16,600 -2,274 Descending Los Angeles Center
Thu 07:35:03 PM 34.2892 -118.8561 158° South 351 404 14,300 -2,226 Descending Los Angeles Center
Thu 07:36:05 PM 34.1989 -118.8236 163° South 340 391 12,000 -1,897 Descending Los Angeles Center
Thu 07:37:19 PM 34.0956 -118.7858 163° South 324 373 10,000 -876 Descending Los Angeles Center
Thu 07:38:22 PM 34.0344 -118.7033 132° Southeast 283 326 10,000 -528 Level Los Angeles Center
Thu 07:39:24 PM 34.0244 -118.6044 97° East 295 339 8,900 -1,403 Descending Los Angeles Center
Thu 07:40:26 PM 34.0147 -118.5017 96° East 285 328 7,100 -968 Descending Los Angeles Center
Thu 07:41:28 PM 34.0161 -118.4286 89° East 259 298 6,900 -629 Descending Los Angeles Center
Thu 07:42:30 PM 34.0261 -118.3700 78° East 233 268 5,800 -1,500 Descending Los Angeles Center
Thu 07:43:32 PM 34.0378 -118.2753 82° East 208 239 3,800 -1,258 Descending Los Angeles Center
Thu 07:44:34 PM 34.0250 -118.2247 107° East 201 231 3,200 -528 Descending Los Angeles Center
Thu 07:45:37 PM 33.9906 -118.2542 215° Southwest 175 201 2,700 -672 Descending Los Angeles Center
Thu 07:46:39 PM 33.9631 -118.2969 232° Southwest 166 191 1,800 -774 Descending Los Angeles Center
Thu 07:47:41 PM 33.9589 -118.3386 263° West 137 158 1,100 -629 Descending Los Angeles Center
Thu 07:48:43 PM 33.9558 -118.3781 265° West 125 144 500 -435 Descending Los Angeles Center
Thu 07:49:45 PM 33.9511 -118.4225 263° West 123 142 200 -290 Descending Los Angeles Center

Login

Don't have an account? Register now (free) for customized features, flight alerts, and more!